CMB weather

Bandaranaike International Colombo Airport
Colombo, Western Province, Sri Lanka

Public forecast

Using degrees Celsius for public forecast. Weather courtesy of forecast.io.

METAR (pilot weather report)

Retrieved 2018/01/22 06:10 UTC (19 minutes ago):

VCBI 220610Z 35005KT 310V030 9000 SCT017 29/20 Q1010 NOSIG

TAF (pilot weather forecast)

Forecast is more than 12 hours old.

Retrieved 2018/01/19 00:55 UTC (3 days ago):

TAF COR VCBI 192140Z 2000/2106 03012KT 9999 FEW018 TX31/2008Z TN21/2100Z PROB40 TEMPO 2000/2002 6000